Time;durP1;ratioP1;P1;durP2;ratioP2;P2;SDS_P1;SDS_P2;PMS_P1;PMS_P2;Temp;Humidity;BMP_temperature;BMP_pressure;BME280_temperature;BME280_humidity;BME280_pressure;Samples;Min_cycle;Max_cycle;Signal;HPM_P1;HPM_P2
2021/11/26 00:01:18;;;;;;;309.58;50.10;;;0.10;99.90;;;;;;20834178;28;20037;-74
2021/11/26 00:11:19;;;;;;;240.02;46.45;;;0.10;99.90;;;;;;20839727;28;20492;-76
2021/11/26 00:21:20;;;;;;;251.52;48.40;;;0.10;99.90;;;;;;20839437;28;20049;-76
2021/11/26 00:31:21;;;;;;;247.18;44.13;;;0.10;99.90;;;;;;20836392;28;20033;-76
2021/11/26 00:41:22;;;;;;;214.52;39.10;;;0.10;99.90;;;;;;20836912;28;20500;-76
2021/11/26 00:51:23;;;;;;;237.55;44.92;;;0.10;99.90;;;;;;20836085;28;20037;-76
2021/11/26 01:01:24;;;;;;;215.32;41.75;;;0.00;99.90;;;;;;20835573;28;20044;-73
2021/11/26 01:11:25;;;;;;;183.50;40.15;;;0.10;99.90;;;;;;20834386;28;20502;-77
2021/11/26 01:21:26;;;;;;;168.93;35.53;;;0.00;99.90;;;;;;20835450;28;20156;-77
2021/11/26 01:31:27;;;;;;;130.35;32.38;;;0.00;99.90;;;;;;20832176;28;20034;-77
2021/11/26 01:41:28;;;;;;;122.53;31.45;;;0.00;99.90;;;;;;20832586;28;20026;-77
2021/11/26 01:51:29;;;;;;;143.27;31.63;;;0.00;99.90;;;;;;20830633;28;20036;-76
2021/11/26 02:01:31;;;;;;;125.65;29.45;;;0.00;99.90;;;;;;20831186;28;20022;-76
2021/11/26 02:11:32;;;;;;;113.20;28.80;;;0.00;99.90;;;;;;20830194;28;20065;-76
2021/11/26 02:21:33;;;;;;;134.23;32.88;;;-0.10;99.90;;;;;;20829496;28;20030;-76
2021/11/26 02:31:33;;;;;;;139.15;34.53;;;0.00;99.90;;;;;;20828704;28;20025;-76
2021/11/26 02:41:35;;;;;;;150.77;35.47;;;-0.10;99.90;;;;;;20826717;28;20036;-76
2021/11/26 02:51:36;;;;;;;150.18;34.03;;;0.00;99.90;;;;;;20827195;28;20038;-75
2021/11/26 03:01:37;;;;;;;146.00;35.65;;;0.00;99.90;;;;;;20826822;28;20443;-76
2021/11/26 03:11:38;;;;;;;159.70;36.05;;;0.00;99.90;;;;;;20824926;28;20063;-76
2021/11/26 03:21:40;;;;;;;169.05;37.63;;;0.00;99.90;;;;;;20826184;28;20105;-76
2021/11/26 03:31:41;;;;;;;161.45;36.92;;;0.00;99.90;;;;;;20824654;28;20403;-76
2021/11/26 03:41:42;;;;;;;156.48;33.50;;;-0.10;99.90;;;;;;20825358;28;20109;-76
2021/11/26 03:51:43;;;;;;;149.07;35.97;;;-0.10;99.90;;;;;;20831563;28;20526;-76
2021/11/26 04:01:44;;;;;;;137.88;34.38;;;-0.10;99.90;;;;;;20823981;28;20055;-75
2021/11/26 04:11:45;;;;;;;147.02;32.38;;;-0.10;99.90;;;;;;20823648;28;20030;-75
2021/11/26 04:21:46;;;;;;;155.80;33.42;;;0.00;99.90;;;;;;20822004;28;20042;-76
2021/11/26 04:31:47;;;;;;;167.65;36.97;;;-0.10;99.90;;;;;;20768800;28;20461;-75
2021/11/26 04:41:48;;;;;;;167.68;38.03;;;-0.10;99.90;;;;;;20740872;28;20041;-77
2021/11/26 04:51:48;;;;;;;143.93;34.53;;;-0.10;99.90;;;;;;20753953;28;20033;-77
2021/11/26 05:01:50;;;;;;;137.43;32.85;;;-0.10;99.90;;;;;;20754034;28;20112;-76
2021/11/26 05:11:53;;;;;;;151.13;33.85;;;-0.10;99.90;;;;;;20754219;28;20395;-77
2021/11/26 05:21:53;;;;;;;138.93;31.27;;;-0.10;99.90;;;;;;20753473;28;20504;-76
2021/11/26 05:31:54;;;;;;;118.75;28.02;;;-0.20;99.90;;;;;;20751672;28;20450;-76
2021/11/26 05:41:55;;;;;;;119.60;28.10;;;-0.20;99.90;;;;;;20751131;28;20030;-76
2021/11/26 05:51:56;;;;;;;120.00;28.05;;;-0.20;99.90;;;;;;20750334;28;20481;-76
2021/11/26 06:01:58;;;;;;;109.53;27.50;;;-0.10;99.90;;;;;;20748741;28;20554;-77
2021/11/26 06:11:59;;;;;;;116.97;30.20;;;-0.10;99.90;;;;;;20750449;28;20073;-78
2021/11/26 06:22:00;;;;;;;118.03;31.15;;;-0.20;99.90;;;;;;20761586;28;20068;-76
2021/11/26 06:32:01;;;;;;;125.57;32.08;;;-0.20;99.90;;;;;;20749004;28;20520;-75
2021/11/26 06:42:03;;;;;;;123.03;31.42;;;-0.10;99.90;;;;;;20750387;28;20140;-77
2021/11/26 06:52:04;;;;;;;114.13;30.05;;;-0.10;99.90;;;;;;20753814;28;20041;-78
2021/11/26 07:02:05;;;;;;;133.93;32.95;;;-0.10;99.90;;;;;;20749768;28;20488;-76
2021/11/26 07:12:10;;;;;;;137.45;36.85;;;-0.20;99.90;;;;;;20783606;28;20037;-77
2021/11/26 07:22:10;;;;;;;136.95;33.53;;;-0.20;99.90;;;;;;20787310;28;20076;-77
2021/11/26 07:32:12;;;;;;;133.35;34.28;;;-0.10;99.90;;;;;;20803745;28;20037;-76
2021/11/26 07:42:13;;;;;;;167.75;37.15;;;-0.20;99.90;;;;;;20790022;28;20034;-75
2021/11/26 07:52:14;;;;;;;168.30;35.60;;;-0.20;99.90;;;;;;20823283;28;20069;-74
2021/11/26 08:02:15;;;;;;;146.32;30.63;;;-0.20;99.90;;;;;;20824129;28;20042;-76
2021/11/26 08:12:16;;;;;;;142.98;32.30;;;-0.10;99.90;;;;;;20819653;28;20392;-75
2021/11/26 08:22:17;;;;;;;140.65;35.47;;;-0.10;99.90;;;;;;20752876;28;20105;-76
2021/11/26 08:32:18;;;;;;;140.25;33.17;;;-0.10;99.90;;;;;;20756451;28;20049;-75
2021/11/26 08:42:19;;;;;;;150.27;34.75;;;-0.10;99.90;;;;;;20754476;28;20161;-75
2021/11/26 08:52:20;;;;;;;149.00;36.67;;;0.00;99.90;;;;;;20754789;28;20037;-77
2021/11/26 09:02:21;;;;;;;152.82;34.05;;;0.00;99.90;;;;;;20754310;28;20489;-75
2021/11/26 09:12:24;;;;;;;144.73;33.22;;;0.00;99.90;;;;;;20751962;28;20125;-75
2021/11/26 09:22:26;;;;;;;136.95;32.33;;;0.10;99.90;;;;;;20753061;28;20037;-75
2021/11/26 09:32:27;;;;;;;130.98;31.35;;;0.30;99.90;;;;;;20751207;28;20034;-77
2021/11/26 09:42:30;;;;;;;114.95;29.30;;;0.50;99.90;;;;;;20752758;28;20388;-77
2021/11/26 09:52:31;;;;;;;108.88;32.08;;;0.50;99.90;;;;;;20751815;28;20116;-76
2021/11/26 10:02:32;;;;;;;113.72;33.10;;;0.80;99.90;;;;;;20750090;28;20489;-76
2021/11/26 10:12:33;;;;;;;93.35;28.48;;;1.00;99.90;;;;;;20748713;28;20069;-76
2021/11/26 10:22:41;;;;;;;107.03;29.55;;;1.00;99.90;;;;;;20748104;28;20117;-76
2021/11/26 10:33:05;;;;;;;105.15;30.85;;;1.00;99.90;;;;;;20781379;22;20048;-78
2021/11/26 10:43:24;;;;;;;100.97;30.00;;;1.00;99.90;;;;;;20759320;28;20041;-78
2021/11/26 11:04:11;;;;;;;90.63;32.22;;;1.30;99.90;;;;;;20757717;28;20041;-77
2021/11/26 11:14:14;;;;;;;79.03;27.98;;;1.30;99.90;;;;;;20757061;28;20053;-78
2021/11/26 11:24:16;;;;;;;94.78;29.83;;;1.40;99.90;;;;;;20772124;28;20033;-78
2021/11/26 11:34:21;;;;;;;83.78;28.20;;;1.40;99.90;;;;;;20758245;28;20041;-78
2021/11/26 11:44:29;;;;;;;83.35;29.55;;;1.50;99.90;;;;;;20756393;28;20400;-78
2021/11/26 11:54:37;;;;;;;78.32;26.65;;;1.50;99.90;;;;;;20778754;28;20041;-79
2021/11/26 12:04:41;;;;;;;75.68;27.08;;;2.00;99.90;;;;;;20774696;28;20041;-79
2021/11/26 12:14:54;;;;;;;51.97;19.65;;;2.20;99.90;;;;;;20734521;28;20096;-78
2021/11/26 12:24:57;;;;;;;50.95;17.45;;;2.10;99.90;;;;;;20691903;28;20108;-79
2021/11/26 12:35:08;;;;;;;32.15;13.50;;;2.10;99.90;;;;;;20689322;28;20053;-78
2021/11/26 12:45:13;;;;;;;34.53;14.45;;;2.10;99.90;;;;;;20691324;28;20057;-78
2021/11/26 12:55:16;;;;;;;35.67;12.93;;;2.20;99.90;;;;;;20699438;28;20038;-79
2021/11/26 13:05:19;;;;;;;32.78;12.60;;;2.40;99.90;;;;;;20696735;28;20038;-79
2021/11/26 13:15:35;;;;;;;34.78;12.63;;;2.50;99.90;;;;;;20690541;28;20026;-79
2021/11/26 13:25:42;;;;;;;41.13;15.13;;;2.60;99.90;;;;;;20688396;28;20045;-78
2021/11/26 13:36:05;;;;;;;45.65;17.10;;;2.50;99.90;;;;;;20691270;28;20967;-80
2021/11/26 13:46:29;;;;;;;49.15;18.70;;;2.50;99.90;;;;;;20688515;28;20719;-79
2021/11/26 13:56:37;;;;;;;60.60;20.35;;;2.50;99.90;;;;;;20670078;28;20145;-79
2021/11/26 14:06:39;;;;;;;57.17;21.23;;;2.50;99.90;;;;;;20699437;28;20038;-80
2021/11/26 14:16:54;;;;;;;57.00;20.88;;;2.50;99.90;;;;;;20685915;28;20034;-80
2021/11/26 14:26:55;;;;;;;58.53;21.10;;;2.40;99.90;;;;;;20686447;28;20134;-80
2021/11/26 14:36:59;;;;;;;66.90;23.02;;;2.40;99.90;;;;;;20686347;28;20097;-79
2021/11/26 14:47:00;;;;;;;59.90;21.92;;;2.30;99.90;;;;;;20690608;28;20129;-80
2021/11/26 14:57:01;;;;;;;95.63;30.67;;;2.30;99.90;;;;;;20686931;28;20109;-80
2021/11/26 15:07:03;;;;;;;65.57;23.60;;;2.30;99.90;;;;;;20685657;28;20648;-81
2021/11/26 15:17:04;;;;;;;67.72;21.50;;;2.20;99.90;;;;;;20658791;28;20037;-81
2021/11/26 15:27:05;;;;;;;59.47;22.33;;;2.30;99.90;;;;;;20681731;28;20048;-81
2021/11/26 15:37:06;;;;;;;60.70;21.85;;;2.30;99.90;;;;;;20683368;28;20132;-80
2021/11/26 15:47:07;;;;;;;53.97;20.52;;;2.30;99.90;;;;;;20681721;28;20472;-81
2021/11/26 15:57:09;;;;;;;50.53;18.30;;;2.30;99.90;;;;;;20680584;28;20109;-80
2021/11/26 16:07:09;;;;;;;77.30;24.45;;;2.20;99.90;;;;;;20679577;28;20088;-80
2021/11/26 16:17:10;;;;;;;108.35;37.08;;;2.00;99.90;;;;;;20674149;28;20150;-80
2021/11/26 16:27:11;;;;;;;52.35;21.50;;;1.70;99.90;;;;;;20718809;23;20063;-77
2021/11/26 16:37:18;;;;;;;67.18;28.77;;;1.50;99.90;;;;;;20696421;28;20034;-75
2021/11/26 16:47:19;;;;;;;63.17;25.67;;;1.40;99.90;;;;;;20674761;28;20118;-77
2021/11/26 16:57:22;;;;;;;54.65;19.33;;;1.30;99.90;;;;;;20670898;28;20030;-75
2021/11/26 17:07:23;;;;;;;62.53;21.10;;;1.30;99.90;;;;;;20668733;28;20039;-75
2021/11/26 17:17:24;;;;;;;48.00;19.50;;;1.30;99.90;;;;;;20680762;28;20092;-76
2021/11/26 17:27:25;;;;;;;54.35;20.75;;;1.40;99.90;;;;;;20663916;28;20026;-77
2021/11/26 17:37:29;;;;;;;81.93;27.88;;;1.40;99.90;;;;;;20665403;28;20036;-76
2021/11/26 17:47:30;;;;;;;78.00;24.35;;;1.60;99.90;;;;;;20664741;28;20236;-75
2021/11/26 17:57:31;;;;;;;58.08;21.80;;;1.60;99.90;;;;;;20668804;28;20026;-75
2021/11/26 18:07:34;;;;;;;71.72;20.85;;;1.40;99.90;;;;;;20656947;28;20061;-76
2021/11/26 18:17:35;;;;;;;60.85;20.08;;;1.50;99.90;;;;;;20670555;28;20061;-76
2021/11/26 18:27:36;;;;;;;66.95;21.65;;;1.60;99.90;;;;;;20664652;28;20036;-74
2021/11/26 18:37:38;;;;;;;56.42;21.83;;;1.60;99.90;;;;;;20679931;28;20033;-75
2021/11/26 18:47:40;;;;;;;66.65;24.80;;;1.70;99.90;;;;;;20672122;28;20053;-75
2021/11/26 18:57:41;;;;;;;68.50;23.83;;;1.80;99.90;;;;;;20665903;28;20045;-75
2021/11/26 19:07:42;;;;;;;63.03;24.75;;;1.60;99.90;;;;;;20667692;28;20041;-76
2021/11/26 19:17:44;;;;;;;76.55;23.83;;;1.60;99.90;;;;;;20666374;28;20038;-77
2021/11/26 19:27:46;;;;;;;68.13;23.63;;;1.60;99.90;;;;;;20666001;28;20396;-77
2021/11/26 19:37:48;;;;;;;74.85;25.75;;;1.70;99.90;;;;;;20664251;28;20453;-74
2021/11/26 19:47:50;;;;;;;75.65;25.67;;;1.50;99.90;;;;;;20665745;28;20045;-75
2021/11/26 19:57:51;;;;;;;86.13;27.98;;;1.50;99.90;;;;;;20666127;28;20869;-75
2021/11/26 20:07:52;;;;;;;84.18;27.02;;;1.50;99.90;;;;;;20663399;28;20050;-76
2021/11/26 20:17:53;;;;;;;79.13;25.15;;;1.50;99.90;;;;;;20656569;28;20042;-76
2021/11/26 20:27:55;;;;;;;73.43;23.60;;;1.50;99.90;;;;;;20682254;28;20408;-75
2021/11/26 20:37:57;;;;;;;66.88;22.90;;;1.50;99.90;;;;;;20681442;28;20044;-75
2021/11/26 20:47:58;;;;;;;91.00;25.30;;;1.40;99.90;;;;;;20677278;28;20034;-73
2021/11/26 20:57:59;;;;;;;74.80;24.25;;;1.30;99.90;;;;;;20680190;28;20053;-75
2021/11/26 21:08:00;;;;;;;135.90;26.73;;;1.30;99.90;;;;;;20677184;28;20057;-74
2021/11/26 21:18:01;;;;;;;66.05;20.90;;;1.00;99.90;;;;;;20676905;28;20040;-74
2021/11/26 21:28:02;;;;;;;54.20;20.48;;;0.70;99.90;;;;;;20675244;28;20083;-76
2021/11/26 21:38:03;;;;;;;73.18;25.55;;;0.70;99.90;;;;;;20691748;28;20452;-76
2021/11/26 21:48:04;;;;;;;210.30;30.25;;;0.80;99.90;;;;;;20675314;28;20485;-75
2021/11/26 21:58:06;;;;;;;60.22;21.52;;;0.70;99.90;;;;;;20672705;28;20105;-76
2021/11/26 22:08:07;;;;;;;54.20;20.42;;;0.60;99.90;;;;;;20624959;28;20030;-76
2021/11/26 22:18:09;;;;;;;64.35;21.27;;;0.40;99.90;;;;;;20608086;28;20117;-76
2021/11/26 22:28:10;;;;;;;66.03;20.00;;;0.30;99.90;;;;;;20663009;22;20050;-77
2021/11/26 22:38:13;;;;;;;48.70;17.40;;;0.10;99.90;;;;;;20708715;28;20034;-77
2021/11/26 22:48:14;;;;;;;51.85;16.52;;;0.30;99.90;;;;;;20676464;28;20524;-77
2021/11/26 22:58:15;;;;;;;51.30;15.00;;;0.30;99.90;;;;;;20673774;28;20041;-78
2021/11/26 23:08:17;;;;;;;34.10;13.32;;;0.50;99.90;;;;;;20672997;28;20116;-78
2021/11/26 23:18:19;;;;;;;43.00;15.32;;;0.60;99.90;;;;;;20653343;28;20968;-78
2021/11/26 23:28:26;;;;;;;35.85;13.57;;;0.70;99.90;;;;;;20670363;28;20034;-77
2021/11/26 23:38:27;;;;;;;39.70;15.63;;;0.70;99.90;;;;;;20670056;28;20034;-78
2021/11/26 23:48:29;;;;;;;37.28;12.90;;;0.60;99.90;;;;;;20713643;28;20030;-78
2021/11/26 23:58:31;;;;;;;31.27;12.48;;;0.70;99.90;;;;;;20762501;28;20032;-77
